createdAt,value
2023-03-18T00:01:11.374Z,14.87
2023-03-18T00:03:39.526Z,14.87
2023-03-18T00:06:10.400Z,14.86
2023-03-18T00:08:41.070Z,14.75
2023-03-18T00:11:11.088Z,14.75
2023-03-18T00:13:39.539Z,14.66
2023-03-18T00:16:08.991Z,14.67
2023-03-18T00:18:36.936Z,14.68
2023-03-18T00:21:06.102Z,14.57
2023-03-18T00:23:35.046Z,14.57
2023-03-18T00:26:04.944Z,14.59
2023-03-18T00:28:33.029Z,14.62
2023-03-18T00:31:08.834Z,14.53
2023-03-18T00:33:38.166Z,14.60
2023-03-18T00:36:10.050Z,14.51
2023-03-18T00:38:38.540Z,14.55
2023-03-18T00:41:12.289Z,14.53
2023-03-18T00:43:47.298Z,14.48
2023-03-18T00:46:17.865Z,14.36
2023-03-18T00:48:46.769Z,14.32
2023-03-18T00:51:17.339Z,14.32
2023-03-18T00:53:48.592Z,14.34
2023-03-18T00:56:19.533Z,14.46
2023-03-18T00:58:48.002Z,14.35
2023-03-18T01:01:17.651Z,14.41
2023-03-18T01:03:46.749Z,14.32
2023-03-18T01:06:17.731Z,14.34
2023-03-18T01:08:45.734Z,14.24
2023-03-18T01:11:14.561Z,14.23
2023-03-18T01:13:44.228Z,14.10
2023-03-18T01:16:12.343Z,14.04
2023-03-18T01:18:41.499Z,13.95
2023-03-18T01:21:11.959Z,13.97
2023-03-18T01:23:47.128Z,13.92
2023-03-18T01:26:16.815Z,13.88
2023-03-18T01:28:48.068Z,13.80
2023-03-18T01:31:16.693Z,13.90
2023-03-18T01:33:47.907Z,13.85
2023-03-18T01:36:17.533Z,13.94
2023-03-18T01:38:52.159Z,13.93
2023-03-18T01:41:20.351Z,13.88
2023-03-18T01:43:49.834Z,13.83
2023-03-18T01:46:37.103Z,13.97
2023-03-18T01:49:10.811Z,13.63
2023-03-18T01:51:40.877Z,13.67
2023-03-18T01:54:10.397Z,13.80
2023-03-18T01:56:41.762Z,13.70
2023-03-18T01:59:13.916Z,13.87
2023-03-18T02:01:46.656Z,13.79
2023-03-18T02:04:16.315Z,13.90
2023-03-18T02:06:44.669Z,13.91
2023-03-18T02:09:13.394Z,13.80
2023-03-18T02:11:46.822Z,13.87
2023-03-18T02:14:21.555Z,13.92
2023-03-18T02:16:55.805Z,13.95
2023-03-18T02:19:31.210Z,14.16
2023-03-18T02:22:06.424Z,13.90
2023-03-18T02:24:43.795Z,13.88
2023-03-18T02:27:19.904Z,13.83
2023-03-18T02:29:50.134Z,13.69
2023-03-18T02:32:22.651Z,13.72
2023-03-18T02:34:51.481Z,13.65
2023-03-18T02:37:19.445Z,13.58
2023-03-18T02:39:47.446Z,13.69
2023-03-18T02:42:18.238Z,13.67
2023-03-18T02:44:53.792Z,13.66
2023-03-18T02:47:32.856Z,13.58
2023-03-18T02:50:00.966Z,13.55
2023-03-18T02:52:29.051Z,13.59
2023-03-18T02:54:59.209Z,13.39
2023-03-18T02:57:28.611Z,13.42
2023-03-18T02:59:59.539Z,13.30
2023-03-18T03:02:27.601Z,13.31
2023-03-18T03:04:55.566Z,13.15
2023-03-18T03:07:27.780Z,13.30
2023-03-18T03:09:58.088Z,13.29
2023-03-18T03:12:26.132Z,13.28
2023-03-18T03:14:58.818Z,13.19
2023-03-18T03:17:29.037Z,13.17
2023-03-18T03:19:57.865Z,13.04
2023-03-18T03:22:27.044Z,13.06
2023-03-18T03:24:55.466Z,12.84
2023-03-18T03:27:23.538Z,12.89
2023-03-18T03:29:51.888Z,13.02
2023-03-18T03:32:23.079Z,12.93
2023-03-18T03:34:52.156Z,13.00
2023-03-18T03:37:20.099Z,12.95
2023-03-18T03:39:49.088Z,12.97
2023-03-18T03:42:17.375Z,12.99
2023-03-18T03:44:45.791Z,13.02
2023-03-18T03:47:13.953Z,13.12
2023-03-18T03:49:43.599Z,13.13
2023-03-18T03:52:13.210Z,13.12
2023-03-18T03:54:42.979Z,13.12
2023-03-18T03:57:11.842Z,13.14
2023-03-18T03:59:39.782Z,12.99
2023-03-18T04:02:15.966Z,12.81
2023-03-18T04:04:46.306Z,12.92
2023-03-18T04:07:24.181Z,12.89
2023-03-18T04:09:52.520Z,12.86
2023-03-18T04:12:21.143Z,12.68
2023-03-18T04:14:56.703Z,12.81
2023-03-18T04:17:25.558Z,12.66
2023-03-18T04:19:55.544Z,12.71
2023-03-18T04:22:29.629Z,12.68
2023-03-18T04:24:58.496Z,12.67
2023-03-18T04:27:26.693Z,12.63
2023-03-18T04:29:55.258Z,12.64
2023-03-18T04:32:28.940Z,12.64
2023-03-18T04:34:58.789Z,12.63
2023-03-18T04:37:27.036Z,12.67
2023-03-18T04:39:58.432Z,12.49
2023-03-18T04:42:26.802Z,12.42
2023-03-18T04:44:54.837Z,12.52
2023-03-18T04:47:23.864Z,12.47
2023-03-18T04:49:53.501Z,12.54
2023-03-18T04:52:23.009Z,12.55
2023-03-18T04:54:51.250Z,12.46
2023-03-18T04:57:19.819Z,12.33
2023-03-18T04:59:52.717Z,12.39
2023-03-18T05:02:21.129Z,12.32
2023-03-18T05:04:49.780Z,12.36
2023-03-18T05:07:18.519Z,12.41
2023-03-18T05:09:58.034Z,12.45
2023-03-18T05:12:26.597Z,12.53
2023-03-18T05:14:54.901Z,12.55
2023-03-18T05:17:25.835Z,12.51
2023-03-18T05:19:58.702Z,12.56
2023-03-18T05:22:27.541Z,12.57
2023-03-18T05:25:11.097Z,12.61
2023-03-18T05:27:41.803Z,12.67
2023-03-18T05:30:31.987Z,12.63
2023-03-18T05:33:00.697Z,12.68
2023-03-18T05:35:43.414Z,12.75
2023-03-18T05:38:11.623Z,12.56
2023-03-18T05:40:41.296Z,12.63
2023-03-18T05:43:18.050Z,12.62
2023-03-18T05:45:52.055Z,12.56
2023-03-18T05:48:24.838Z,12.54
2023-03-18T05:50:58.743Z,12.43
2023-03-18T05:53:28.674Z,12.45
2023-03-18T05:56:08.293Z,12.39
2023-03-18T05:58:36.283Z,12.32
2023-03-18T06:01:26.116Z,12.31
2023-03-18T06:03:55.587Z,12.33
2023-03-18T06:06:23.699Z,12.32
2023-03-18T06:08:52.690Z,12.24
2023-03-18T06:11:22.221Z,12.30
2023-03-18T06:13:52.237Z,12.25
2023-03-18T06:16:20.467Z,12.12
2023-03-18T06:18:49.040Z,12.20
2023-03-18T06:21:17.254Z,12.27
2023-03-18T06:23:45.568Z,12.30
2023-03-18T06:26:14.152Z,12.31
2023-03-18T06:28:49.786Z,12.34
2023-03-18T06:31:19.943Z,12.29
2023-03-18T06:33:49.511Z,12.29
2023-03-18T06:36:19.332Z,12.31
2023-03-18T06:38:50.036Z,12.33
2023-03-18T06:41:19.116Z,12.38
2023-03-18T06:44:01.214Z,12.25
2023-03-18T06:46:31.250Z,12.42
2023-03-18T06:49:00.417Z,12.45
2023-03-18T06:51:33.733Z,12.52
2023-03-18T06:54:02.521Z,12.41
2023-03-18T06:56:33.874Z,12.32
2023-03-18T06:59:13.107Z,12.41
2023-03-18T07:01:41.385Z,12.52
2023-03-18T07:04:09.448Z,12.55
2023-03-18T07:06:38.035Z,12.61
2023-03-18T07:09:06.662Z,12.57
2023-03-18T07:11:34.584Z,12.43
2023-03-18T07:14:08.434Z,12.47
2023-03-18T07:16:39.038Z,12.57
2023-03-18T07:19:07.330Z,12.65
2023-03-18T07:21:35.987Z,12.66
2023-03-18T07:24:05.719Z,12.70
2023-03-18T07:26:33.636Z,12.67
2023-03-18T07:29:01.854Z,12.74
2023-03-18T07:31:30.863Z,12.74
2023-03-18T07:34:00.385Z,12.74
2023-03-18T07:36:28.838Z,12.75
2023-03-18T07:38:56.823Z,12.79
2023-03-18T07:41:26.059Z,12.77
2023-03-18T07:43:55.431Z,12.90
2023-03-18T07:46:23.980Z,12.98
2023-03-18T07:48:51.966Z,12.81
2023-03-18T07:51:21.722Z,12.76
2023-03-18T07:53:50.649Z,12.93
2023-03-18T07:56:18.989Z,13.00
2023-03-18T07:58:48.268Z,13.02
2023-03-18T08:01:18.408Z,13.10
2023-03-18T08:03:47.488Z,13.21
2023-03-18T08:06:18.115Z,13.21
2023-03-18T08:08:49.344Z,13.17
2023-03-18T08:11:17.557Z,13.19
2023-03-18T08:13:45.850Z,13.33
2023-03-18T08:16:13.858Z,13.36
2023-03-18T08:18:42.108Z,13.35
2023-03-18T08:21:10.727Z,13.33
2023-03-18T08:23:39.262Z,13.35
2023-03-18T08:26:09.433Z,13.35
2023-03-18T08:28:37.650Z,13.29
2023-03-18T08:31:06.953Z,13.43
2023-03-18T08:33:35.333Z,13.35
2023-03-18T08:36:04.082Z,13.39
2023-03-18T08:38:33.030Z,13.41
2023-03-18T08:41:02.446Z,13.44
2023-03-18T08:43:32.862Z,13.26
2023-03-18T08:46:02.613Z,13.42
2023-03-18T08:48:32.577Z,13.32
2023-03-18T08:51:01.553Z,13.39
2023-03-18T08:53:30.126Z,13.50
2023-03-18T08:55:58.263Z,13.47
2023-03-18T08:58:27.544Z,13.44
2023-03-18T09:00:57.690Z,13.46
2023-03-18T09:03:25.791Z,13.50
2023-03-18T09:05:55.649Z,13.48
2023-03-18T09:08:23.701Z,13.46
2023-03-18T09:10:53.943Z,13.41
2023-03-18T09:13:24.307Z,13.42
2023-03-18T09:15:53.222Z,13.51
2023-03-18T09:18:25.247Z,13.54
2023-03-18T09:20:54.825Z,13.60
2023-03-18T09:23:23.590Z,13.67
2023-03-18T09:25:51.751Z,13.76
2023-03-18T09:28:19.860Z,13.71
2023-03-18T09:30:48.815Z,13.74
2023-03-18T09:33:18.001Z,13.79
2023-03-18T09:35:49.015Z,13.64
2023-03-18T09:38:19.692Z,13.74
2023-03-18T09:40:56.577Z,13.78
2023-03-18T09:43:40.344Z,13.90
2023-03-18T09:46:12.084Z,14.08
2023-03-18T09:49:17.972Z,13.84
2023-03-18T09:51:58.999Z,13.67
2023-03-18T09:54:39.056Z,13.66
2023-03-18T09:57:14.339Z,13.73
2023-03-18T09:59:49.062Z,13.70
2023-03-18T10:02:24.754Z,13.76
2023-03-18T10:04:57.625Z,13.97
2023-03-18T10:07:32.716Z,13.96
2023-03-18T10:10:05.052Z,13.97
2023-03-18T10:12:36.453Z,14.13
2023-03-18T10:15:13.887Z,14.16
2023-03-18T10:17:45.486Z,14.18
2023-03-18T10:20:21.677Z,14.35
2023-03-18T10:23:21.459Z,14.51
2023-03-18T10:25:53.586Z,14.37
2023-03-18T10:28:42.574Z,14.59
2023-03-18T10:31:29.670Z,14.60
2023-03-18T10:34:00.086Z,14.56
2023-03-18T10:36:32.979Z,14.58
2023-03-18T10:39:03.802Z,14.66
2023-03-18T10:41:35.380Z,14.73
2023-03-18T10:44:08.423Z,14.63
2023-03-18T10:46:37.668Z,14.81
2023-03-18T10:49:13.733Z,14.91
2023-03-18T10:51:48.035Z,14.84
2023-03-18T10:54:24.430Z,14.86
2023-03-18T10:56:53.408Z,14.96
2023-03-18T10:59:24.719Z,14.79
2023-03-18T11:01:58.719Z,14.88
2023-03-18T11:04:30.672Z,14.79
2023-03-18T11:07:02.899Z,14.80
2023-03-18T11:09:36.253Z,14.91
2023-03-18T11:12:06.757Z,14.98
2023-03-18T11:14:37.560Z,15.02
2023-03-18T11:17:08.122Z,15.19
2023-03-18T11:19:39.818Z,15.27
2023-03-18T11:22:20.707Z,15.38
2023-03-18T11:25:02.432Z,15.52
2023-03-18T11:27:38.875Z,15.62
2023-03-18T11:30:31.067Z,15.85
2023-03-18T11:33:07.231Z,15.90
2023-03-18T11:35:42.011Z,15.86
2023-03-18T11:38:16.670Z,16.06
2023-03-18T11:40:46.377Z,16.00
2023-03-18T11:43:19.913Z,16.12
2023-03-18T11:45:51.383Z,16.22
2023-03-18T11:48:31.574Z,16.12
2023-03-18T11:51:12.082Z,16.07
2023-03-18T11:53:56.710Z,15.64
2023-03-18T11:56:34.998Z,15.65
2023-03-18T11:59:36.085Z,15.84
2023-03-18T12:02:32.192Z,15.78
2023-03-18T12:05:22.834Z,15.89
2023-03-18T12:08:01.470Z,15.91
2023-03-18T12:10:36.210Z,15.78
2023-03-18T12:13:21.001Z,16.03
2023-03-18T12:15:58.297Z,16.28
2023-03-18T12:18:45.385Z,16.49
2023-03-18T12:21:31.025Z,16.57
2023-03-18T12:24:20.597Z,16.77
2023-03-18T12:26:55.761Z,16.76
2023-03-18T12:29:50.335Z,16.82
2023-03-18T12:32:27.447Z,16.85
2023-03-18T12:35:22.880Z,16.87
2023-03-18T12:38:11.531Z,16.71
2023-03-18T12:40:48.870Z,16.68
2023-03-18T12:43:30.349Z,16.92
2023-03-18T12:46:05.391Z,17.06
2023-03-18T12:48:44.357Z,16.88
2023-03-18T12:51:18.242Z,16.94
2023-03-18T12:53:47.736Z,17.05
2023-03-18T12:56:20.060Z,16.92
2023-03-18T12:58:52.277Z,16.97
2023-03-18T13:01:28.068Z,17.03
2023-03-18T13:04:01.500Z,17.21
2023-03-18T13:06:35.499Z,17.29
2023-03-18T13:09:08.547Z,17.29
2023-03-18T13:11:59.002Z,17.61
2023-03-18T13:14:32.679Z,17.80
2023-03-18T13:17:03.043Z,17.72
2023-03-18T13:19:31.991Z,17.60
2023-03-18T13:22:13.642Z,17.71
2023-03-18T13:24:53.930Z,17.71
2023-03-18T13:27:45.110Z,17.73
2023-03-18T13:30:24.106Z,17.40
2023-03-18T13:33:10.138Z,17.23
2023-03-18T13:35:58.642Z,17.32
2023-03-18T13:38:55.480Z,17.35
2023-03-18T13:41:38.493Z,17.22
2023-03-18T13:44:13.312Z,17.34
2023-03-18T13:46:43.615Z,17.08
2023-03-18T13:49:21.844Z,16.96
2023-03-18T13:51:53.985Z,16.93
2023-03-18T13:54:22.236Z,17.03
2023-03-18T13:56:55.736Z,17.08
2023-03-18T13:59:42.292Z,17.23
2023-03-18T14:02:32.699Z,16.85
2023-03-18T14:05:02.810Z,16.93
2023-03-18T14:07:31.907Z,16.92
2023-03-18T14:10:20.570Z,17.04
2023-03-18T14:12:49.441Z,17.07
2023-03-18T14:15:38.475Z,17.23
2023-03-18T14:18:20.355Z,17.02
2023-03-18T14:20:54.541Z,17.15
2023-03-18T14:23:35.575Z,17.03
2023-03-18T14:26:07.767Z,17.08
2023-03-18T14:28:46.593Z,17.24
2023-03-18T14:31:20.805Z,17.27
2023-03-18T14:33:52.364Z,17.19
2023-03-18T14:36:27.924Z,17.22
2023-03-18T14:39:00.352Z,17.36
2023-03-18T14:41:29.418Z,17.37
2023-03-18T14:44:08.938Z,17.37
2023-03-18T14:46:42.987Z,17.45
2023-03-18T14:49:43.056Z,17.60
2023-03-18T14:52:23.137Z,17.52
2023-03-18T14:54:53.437Z,17.40
2023-03-18T14:57:23.535Z,17.45
2023-03-18T14:59:51.775Z,17.34
2023-03-18T15:02:25.982Z,17.25
2023-03-18T15:04:56.631Z,17.24
2023-03-18T15:07:35.795Z,17.21
2023-03-18T15:10:14.361Z,17.28
2023-03-18T15:12:42.767Z,17.27
2023-03-18T15:15:15.423Z,17.35
2023-03-18T15:17:46.906Z,17.23
2023-03-18T15:20:15.627Z,17.26
2023-03-18T15:22:45.014Z,17.29
2023-03-18T15:25:17.821Z,17.25
2023-03-18T15:27:46.642Z,17.18
2023-03-18T15:30:24.655Z,17.04
2023-03-18T15:32:56.614Z,17.14
2023-03-18T15:35:26.497Z,17.08
2023-03-18T15:38:05.592Z,17.16
2023-03-18T15:40:36.365Z,17.27
2023-03-18T15:43:06.334Z,17.32
2023-03-18T15:45:35.660Z,17.23
2023-03-18T15:48:08.053Z,17.10
2023-03-18T15:50:37.195Z,17.14
2023-03-18T15:53:08.349Z,17.20
2023-03-18T15:55:47.269Z,17.16
2023-03-18T15:58:20.639Z,17.01
2023-03-18T16:00:48.589Z,17.07
2023-03-18T16:03:18.621Z,17.04
2023-03-18T16:05:46.902Z,17.15
2023-03-18T16:08:16.851Z,16.86
2023-03-18T16:10:45.050Z,16.71
2023-03-18T16:13:18.262Z,16.77
2023-03-18T16:15:46.386Z,16.83
2023-03-18T16:18:14.142Z,16.90
2023-03-18T16:20:46.752Z,16.86
2023-03-18T16:23:17.485Z,17.03
2023-03-18T16:25:45.713Z,17.05
2023-03-18T16:28:18.673Z,17.08
2023-03-18T16:30:46.580Z,17.14
2023-03-18T16:33:14.897Z,16.88
2023-03-18T16:35:43.723Z,16.69
2023-03-18T16:38:17.469Z,16.78
2023-03-18T16:40:46.682Z,16.92
2023-03-18T16:43:17.152Z,16.98
2023-03-18T16:45:45.354Z,17.04
2023-03-18T16:48:15.273Z,16.96
2023-03-18T16:50:45.087Z,16.94
2023-03-18T16:53:17.233Z,16.86
2023-03-18T16:55:47.166Z,16.75
2023-03-18T16:58:17.732Z,16.89
2023-03-18T17:00:48.321Z,16.83
2023-03-18T17:03:18.364Z,16.85
2023-03-18T17:05:47.340Z,16.90
2023-03-18T17:08:15.555Z,16.85
2023-03-18T17:10:44.187Z,16.78
2023-03-18T17:13:18.697Z,16.74
2023-03-18T17:15:46.527Z,16.67
2023-03-18T17:18:15.697Z,16.64
2023-03-18T17:20:44.018Z,16.59
2023-03-18T17:23:19.113Z,16.62
2023-03-18T17:25:49.539Z,16.55
2023-03-18T17:28:23.121Z,16.54
2023-03-18T17:30:51.352Z,16.43
2023-03-18T17:33:21.933Z,16.39
2023-03-18T17:35:49.744Z,16.40
2023-03-18T17:38:17.921Z,16.39
2023-03-18T17:40:47.667Z,16.32
2023-03-18T17:43:18.702Z,16.28
2023-03-18T17:45:48.355Z,16.34
2023-03-18T17:48:17.965Z,16.33
2023-03-18T17:50:46.464Z,16.35
2023-03-18T17:53:23.086Z,16.33
2023-03-18T17:55:51.677Z,16.27
2023-03-18T17:58:20.053Z,16.18
2023-03-18T18:00:49.476Z,16.20
2023-03-18T18:03:20.686Z,16.27
2023-03-18T18:05:48.468Z,16.29
2023-03-18T18:08:17.786Z,16.32
2023-03-18T18:10:45.629Z,16.33
2023-03-18T18:13:17.055Z,16.35
2023-03-18T18:15:46.000Z,16.36
2023-03-18T18:18:23.176Z,16.35
2023-03-18T18:20:53.720Z,16.37
2023-03-18T18:23:30.002Z,16.39
2023-03-18T18:25:59.784Z,16.35
2023-03-18T18:28:30.398Z,16.33
2023-03-18T18:30:58.587Z,16.34
2023-03-18T18:33:28.174Z,16.36
2023-03-18T18:35:56.913Z,16.38
2023-03-18T18:38:25.658Z,16.37
2023-03-18T18:40:54.271Z,16.34
2023-03-18T18:43:22.835Z,16.32
2023-03-18T18:45:51.486Z,16.33
2023-03-18T18:48:20.355Z,16.36
2023-03-18T18:50:49.995Z,16.38
2023-03-18T18:53:21.651Z,16.39
2023-03-18T18:55:49.560Z,16.37
2023-03-18T18:58:18.682Z,16.34
2023-03-18T19:00:48.634Z,16.32
2023-03-18T19:03:17.504Z,16.37
2023-03-18T19:05:45.905Z,16.38
2023-03-18T19:08:25.536Z,16.40
2023-03-18T19:10:57.374Z,16.39
2023-03-18T19:13:25.121Z,16.37
2023-03-18T19:15:54.022Z,16.37
2023-03-18T19:18:23.506Z,16.36
2023-03-18T19:20:52.004Z,16.39
2023-03-18T19:23:21.958Z,16.32
2023-03-18T19:25:52.114Z,16.34
2023-03-18T19:28:21.993Z,16.31
2023-03-18T19:30:49.941Z,16.27
2023-03-18T19:33:18.164Z,16.24
2023-03-18T19:35:46.457Z,16.17
2023-03-18T19:38:17.034Z,16.17
2023-03-18T19:40:44.839Z,16.13
2023-03-18T19:43:17.703Z,16.09
2023-03-18T19:45:46.126Z,16.10
2023-03-18T19:48:16.427Z,16.06
2023-03-18T19:50:44.159Z,15.92
2023-03-18T19:53:12.937Z,15.80
2023-03-18T19:55:41.439Z,15.79
2023-03-18T19:58:13.091Z,15.76
2023-03-18T20:00:42.924Z,15.74
2023-03-18T20:03:13.942Z,15.75
2023-03-18T20:05:41.715Z,15.73
2023-03-18T20:08:09.480Z,15.70
2023-03-18T20:10:37.475Z,15.66
2023-03-18T20:13:05.435Z,15.61
2023-03-18T20:15:33.700Z,15.63
2023-03-18T20:18:02.997Z,15.57
2023-03-18T20:20:32.220Z,15.45
2023-03-18T20:23:01.888Z,15.48
2023-03-18T20:25:32.420Z,15.44
2023-03-18T20:28:01.157Z,15.45
2023-03-18T20:30:30.105Z,15.42
2023-03-18T20:32:58.359Z,15.22
2023-03-18T20:35:29.366Z,15.26
2023-03-18T20:37:58.114Z,15.27
2023-03-18T20:40:26.620Z,15.21
2023-03-18T20:42:54.679Z,15.18
2023-03-18T20:45:23.339Z,15.14
2023-03-18T20:47:51.340Z,15.05
2023-03-18T20:50:20.594Z,15.09
2023-03-18T20:52:50.848Z,15.08
2023-03-18T20:55:23.819Z,15.11
2023-03-18T20:57:52.170Z,15.01
2023-03-18T21:00:21.450Z,15.01
2023-03-18T21:02:49.225Z,14.98
2023-03-18T21:05:16.985Z,14.91
2023-03-18T21:07:45.010Z,14.94
2023-03-18T21:10:17.950Z,14.94
2023-03-18T21:12:45.755Z,14.94
2023-03-18T21:15:17.916Z,14.93
2023-03-18T21:17:46.412Z,14.93
2023-03-18T21:20:22.085Z,14.94
2023-03-18T21:22:51.495Z,14.94
2023-03-18T21:25:22.815Z,14.95
2023-03-18T21:27:51.537Z,14.96
2023-03-18T21:30:21.661Z,14.90
2023-03-18T21:32:50.461Z,14.92
2023-03-18T21:35:23.962Z,14.97
2023-03-18T21:37:52.226Z,14.86
2023-03-18T21:40:23.098Z,14.84
2023-03-18T21:42:51.506Z,14.87
2023-03-18T21:45:20.431Z,14.83
2023-03-18T21:47:48.245Z,14.83
2023-03-18T21:50:23.899Z,14.85
2023-03-18T21:52:52.913Z,14.84
2023-03-18T21:55:22.719Z,14.83
2023-03-18T21:57:50.488Z,14.81
2023-03-18T22:00:20.379Z,14.82
2023-03-18T22:02:48.289Z,14.82
2023-03-18T22:05:17.612Z,14.84
2023-03-18T22:07:45.932Z,14.89
2023-03-18T22:10:16.087Z,14.92
2023-03-18T22:12:45.160Z,14.94
2023-03-18T22:15:30.227Z,14.89
2023-03-18T22:17:57.870Z,14.90
2023-03-18T22:20:26.011Z,14.88
2023-03-18T22:22:53.919Z,14.85
2023-03-18T22:25:28.151Z,14.85
2023-03-18T22:27:57.252Z,14.82
2023-03-18T22:30:25.298Z,14.83
2023-03-18T22:32:53.701Z,14.79
2023-03-18T22:35:22.503Z,14.81
2023-03-18T22:37:50.705Z,14.80
2023-03-18T22:40:19.533Z,14.67
2023-03-18T22:42:47.482Z,14.53
2023-03-18T22:45:24.001Z,14.39
2023-03-18T22:47:52.168Z,14.16
2023-03-18T22:50:20.467Z,14.07
2023-03-18T22:52:49.341Z,14.06
2023-03-18T22:55:18.680Z,14.07
2023-03-18T22:57:46.461Z,13.90
2023-03-18T23:00:25.931Z,13.84
2023-03-18T23:02:54.432Z,13.93
2023-03-18T23:05:23.388Z,13.88
2023-03-18T23:07:51.575Z,13.96
2023-03-18T23:10:21.085Z,13.93
2023-03-18T23:12:49.036Z,13.81
2023-03-18T23:15:22.329Z,13.87
2023-03-18T23:17:51.644Z,14.02
2023-03-18T23:20:19.571Z,14.06
2023-03-18T23:22:47.345Z,13.98
2023-03-18T23:25:16.472Z,13.99
2023-03-18T23:27:44.648Z,14.04
2023-03-18T23:30:13.649Z,14.03
2023-03-18T23:32:42.063Z,13.95
2023-03-18T23:35:11.513Z,14.06
2023-03-18T23:37:39.798Z,14.15
2023-03-18T23:40:08.620Z,14.23
2023-03-18T23:42:36.620Z,14.25
2023-03-18T23:45:04.969Z,14.26
2023-03-18T23:47:32.704Z,14.26
2023-03-18T23:50:00.331Z,14.23
2023-03-18T23:52:29.383Z,14.29
2023-03-18T23:54:57.042Z,14.31
2023-03-18T23:57:24.710Z,14.35
2023-03-18T23:59:52.620Z,14.40
